createdAt,value
2017-10-24T00:00:23.942Z,74.32
2017-10-24T00:05:25.892Z,74.40
2017-10-24T00:10:27.816Z,74.56
2017-10-24T00:15:30.623Z,74.62
2017-10-24T00:20:32.598Z,74.86
2017-10-24T00:25:34.556Z,75.02
2017-10-24T00:30:36.505Z,75.18
2017-10-24T00:35:38.424Z,75.09
2017-10-24T00:40:41.413Z,75.03
2017-10-24T00:45:43.383Z,74.90
2017-10-24T00:50:46.102Z,74.69
2017-10-24T00:55:48.124Z,74.56
2017-10-24T01:00:50.863Z,74.48
2017-10-24T01:05:53.461Z,74.68
2017-10-24T01:10:57.051Z,74.92
2017-10-24T01:15:59.078Z,75.08
2017-10-24T01:21:01.107Z,75.36
2017-10-24T01:26:03.930Z,75.35
2017-10-24T01:31:05.964Z,75.22
2017-10-24T01:36:08.002Z,75.28
2017-10-24T01:41:10.075Z,75.16
2017-10-24T01:46:12.082Z,75.28
2017-10-24T01:51:14.117Z,75.26
2017-10-24T01:56:16.143Z,75.25
2017-10-24T02:01:18.183Z,75.41
2017-10-24T02:06:20.143Z,75.32
2017-10-24T02:11:22.154Z,75.55
2017-10-24T02:16:24.172Z,75.47
2017-10-24T02:21:26.220Z,75.50
2017-10-24T02:26:28.226Z,75.23
2017-10-24T02:31:30.200Z,75.05
2017-10-24T02:36:32.152Z,75.12
2017-10-24T02:41:34.179Z,75.11
2017-10-24T02:46:36.154Z,74.92
2017-10-24T02:51:38.230Z,74.93
2017-10-24T02:56:40.902Z,74.95
2017-10-24T03:01:42.851Z,75.11
2017-10-24T03:06:44.765Z,75.11
2017-10-24T03:11:47.602Z,74.96
2017-10-24T03:16:49.525Z,74.86
2017-10-24T03:21:51.503Z,74.79
2017-10-24T03:26:53.504Z,74.56
2017-10-24T03:31:56.171Z,74.75
2017-10-24T03:36:58.104Z,74.59
2017-10-24T03:42:00.037Z,74.62
2017-10-24T03:47:02.679Z,74.53
2017-10-24T03:52:04.683Z,74.78
2017-10-24T03:57:06.698Z,74.74
2017-10-24T04:02:08.635Z,74.64
2017-10-24T04:07:10.620Z,74.70
2017-10-24T04:12:12.591Z,74.71
2017-10-24T04:17:14.548Z,74.86
2017-10-24T04:22:16.537Z,74.79
2017-10-24T04:27:18.521Z,74.92
2017-10-24T04:32:20.516Z,74.82
2017-10-24T04:37:22.532Z,74.79
2017-10-24T04:42:24.447Z,74.84
2017-10-24T04:47:26.387Z,74.84
2017-10-24T04:52:28.398Z,74.88
2017-10-24T04:57:31.074Z,74.94
2017-10-24T05:02:33.028Z,74.89
2017-10-24T05:07:35.719Z,74.88
2017-10-24T05:12:37.634Z,74.74
2017-10-24T05:17:39.614Z,74.74
2017-10-24T05:22:41.564Z,74.63
2017-10-24T05:27:44.311Z,74.78
2017-10-24T05:32:47.173Z,74.74
2017-10-24T05:37:49.891Z,75.03
2017-10-24T05:42:53.987Z,74.84
2017-10-24T05:47:56.259Z,74.78
2017-10-24T05:52:58.315Z,74.75
2017-10-24T05:58:00.978Z,74.66
2017-10-24T06:03:02.968Z,74.68
2017-10-24T06:08:04.886Z,74.51
2017-10-24T06:13:06.800Z,74.64
2017-10-24T06:18:08.840Z,74.62
2017-10-24T06:23:10.823Z,74.69
2017-10-24T06:28:12.792Z,74.41
2017-10-24T06:33:14.701Z,74.34
2017-10-24T06:38:16.693Z,74.38
2017-10-24T06:43:18.673Z,74.02
2017-10-24T06:48:20.664Z,73.99
2017-10-24T06:53:23.379Z,73.88
2017-10-24T06:58:26.086Z,73.93
2017-10-24T07:03:28.075Z,73.65
2017-10-24T07:08:30.024Z,74.09
2017-10-24T07:13:32.787Z,73.98
2017-10-24T07:18:34.806Z,73.95
2017-10-24T07:23:36.779Z,73.45
2017-10-24T07:28:38.721Z,73.07
2017-10-24T07:33:40.656Z,72.96
2017-10-24T07:38:43.373Z,72.81
2017-10-24T07:43:46.064Z,72.79
2017-10-24T07:48:48.040Z,72.74
2017-10-24T07:53:49.999Z,72.86
2017-10-24T07:58:52.054Z,72.72
2017-10-24T08:03:53.999Z,72.90
2017-10-24T08:08:56.026Z,73.33
2017-10-24T08:13:58.060Z,73.57
2017-10-24T08:19:00.101Z,73.93
2017-10-24T08:24:02.056Z,74.42
2017-10-24T08:29:04.014Z,74.78
2017-10-24T08:34:05.948Z,74.62
2017-10-24T08:39:07.897Z,74.63
2017-10-24T08:44:13.866Z,74.60
2017-10-24T08:49:15.784Z,75.05
2017-10-24T08:54:17.986Z,75.05
2017-10-24T08:59:19.931Z,74.91
2017-10-24T09:04:21.933Z,74.65
2017-10-24T09:15:05.064Z,74.42
2017-10-24T09:20:09.744Z,74.07
2017-10-24T09:25:11.851Z,73.98
2017-10-24T09:30:19.062Z,73.64
2017-10-24T09:35:22.104Z,73.54
2017-10-24T09:40:24.094Z,73.57
2017-10-24T09:45:27.163Z,73.23
2017-10-24T09:50:29.423Z,72.86
2017-10-24T09:55:31.364Z,72.49
2017-10-24T10:00:33.399Z,72.67
2017-10-24T10:05:35.540Z,72.77
2017-10-24T10:10:37.527Z,72.34
2017-10-24T10:15:39.581Z,71.21
2017-10-24T10:20:41.607Z,71.08
2017-10-24T10:25:43.598Z,71.30
2017-10-24T10:30:45.877Z,71.09
2017-10-24T10:35:47.751Z,71.61
2017-10-24T10:40:50.429Z,71.41
2017-10-24T10:45:52.456Z,70.83
2017-10-24T10:50:54.411Z,70.73
2017-10-24T10:55:56.342Z,70.86
2017-10-24T11:00:58.322Z,70.82
2017-10-24T11:06:00.577Z,71.04
2017-10-24T11:11:02.506Z,70.99
2017-10-24T11:16:08.770Z,70.81
2017-10-24T11:21:11.031Z,70.51
2017-10-24T11:26:13.747Z,70.66
2017-10-24T11:31:15.679Z,70.14
2017-10-24T11:36:17.648Z,69.63
2017-10-24T11:41:20.318Z,69.62
2017-10-24T11:46:22.315Z,69.15
2017-10-24T11:51:24.270Z,68.25
2017-10-24T11:56:26.677Z,67.83
2017-10-24T12:01:28.796Z,68.29
2017-10-24T12:06:30.860Z,68.80
2017-10-24T12:11:32.801Z,69.15
2017-10-24T12:16:35.181Z,68.60
2017-10-24T12:21:37.108Z,68.46
2017-10-24T12:26:39.046Z,68.72
2017-10-24T12:31:40.979Z,68.97
2017-10-24T12:36:42.927Z,69.25
2017-10-24T12:41:45.014Z,69.41
2017-10-24T12:46:57.840Z,68.94
2017-10-24T12:51:59.992Z,68.12
2017-10-24T12:57:02.009Z,67.77
2017-10-24T13:02:04.050Z,67.75
2017-10-24T13:07:06.516Z,67.59
2017-10-24T13:12:08.480Z,67.52
2017-10-24T13:17:10.422Z,67.79
2017-10-24T13:22:12.409Z,67.98
2017-10-24T13:27:14.340Z,68.07
2017-10-24T13:32:16.313Z,68.02
2017-10-24T13:37:18.247Z,68.49
2017-10-24T13:42:20.163Z,68.68
2017-10-24T13:47:22.927Z,68.76
2017-10-24T13:52:24.887Z,68.92
2017-10-24T13:57:27.089Z,68.97
2017-10-24T14:02:29.071Z,68.88
2017-10-24T14:07:36.941Z,68.84
2017-10-24T14:12:38.898Z,69.10
2017-10-24T14:17:40.882Z,69.12
2017-10-24T14:22:42.947Z,69.13
2017-10-24T14:27:44.958Z,69.55
2017-10-24T14:32:46.889Z,69.67
2017-10-24T14:37:48.838Z,70.54
2017-10-24T14:42:50.788Z,70.41
2017-10-24T14:47:52.691Z,70.55
2017-10-24T14:52:55.364Z,70.35
2017-10-24T14:57:57.287Z,70.67
2017-10-24T15:02:59.192Z,71.62
2017-10-24T15:08:01.140Z,71.01
2017-10-24T15:13:03.112Z,71.33
2017-10-24T15:18:05.063Z,71.79
2017-10-24T15:23:07.104Z,71.96
2017-10-24T15:28:09.060Z,72.81
2017-10-24T15:33:11.056Z,72.95
2017-10-24T15:38:13.707Z,72.80
2017-10-24T15:43:16.233Z,73.15
2017-10-24T15:48:18.207Z,73.60
2017-10-24T15:53:20.940Z,73.83
2017-10-24T15:58:22.908Z,74.59
2017-10-24T16:03:24.882Z,75.62
2017-10-24T16:08:26.892Z,76.20
2017-10-24T16:13:28.845Z,76.43
2017-10-24T16:18:30.777Z,76.65
2017-10-24T16:23:32.692Z,77.53
2017-10-24T16:28:34.634Z,77.23
2017-10-24T16:33:36.735Z,77.93
2017-10-24T16:38:38.710Z,78.11
2017-10-24T16:43:40.661Z,78.12
2017-10-24T16:48:43.316Z,78.27
2017-10-24T16:53:45.255Z,77.99
2017-10-24T16:58:47.195Z,78.05
2017-10-24T17:03:49.115Z,78.03
2017-10-24T17:08:55.545Z,77.84
2017-10-24T17:14:03.827Z,77.87
2017-10-24T17:19:07.494Z,77.92
2017-10-24T17:24:09.563Z,78.01
2017-10-24T17:29:11.451Z,78.04
2017-10-24T17:34:13.411Z,77.58
2017-10-24T17:39:16.221Z,77.61
2017-10-24T17:44:22.416Z,77.48
2017-10-24T17:49:24.356Z,77.55
2017-10-24T17:54:27.086Z,77.18
2017-10-24T17:59:30.025Z,76.99
2017-10-24T18:04:31.975Z,76.77
2017-10-24T18:09:33.921Z,76.68
2017-10-24T18:14:35.933Z,76.60
2017-10-24T18:19:38.068Z,76.42
2017-10-24T18:24:40.412Z,76.73
2017-10-24T18:29:42.365Z,76.70
2017-10-24T18:34:44.313Z,76.82
2017-10-24T18:39:46.420Z,77.12
2017-10-24T18:44:48.318Z,77.08
2017-10-24T18:49:50.312Z,77.63
2017-10-24T18:54:52.285Z,77.04
2017-10-24T18:59:54.314Z,76.86
2017-10-24T19:04:56.351Z,77.06
2017-10-24T19:09:58.456Z,76.90
2017-10-24T19:15:00.899Z,76.86
2017-10-24T19:20:03.626Z,77.43
2017-10-24T19:25:05.550Z,77.17
2017-10-24T19:30:07.475Z,77.62
2017-10-24T19:35:09.434Z,77.54
2017-10-24T19:40:11.356Z,76.94
2017-10-24T19:45:13.367Z,77.27
2017-10-24T19:50:15.319Z,77.71
2017-10-24T19:55:17.231Z,77.72
2017-10-24T20:00:19.170Z,77.98
2017-10-24T20:05:21.075Z,77.89
2017-10-24T20:10:23.009Z,78.87
2017-10-24T20:15:24.970Z,78.79
2017-10-24T20:20:26.975Z,78.41
2017-10-24T20:25:28.942Z,78.31
2017-10-24T20:30:30.895Z,78.25
2017-10-24T20:35:32.818Z,77.48
2017-10-24T20:40:34.772Z,77.61
2017-10-24T20:45:37.476Z,77.33
2017-10-24T20:50:39.433Z,77.67
2017-10-24T20:55:41.408Z,78.16
2017-10-24T21:00:43.339Z,78.00
2017-10-24T21:05:45.253Z,77.87
2017-10-24T21:10:47.192Z,77.74
2017-10-24T21:15:49.108Z,77.87
2017-10-24T21:20:51.176Z,77.19
2017-10-24T21:25:53.127Z,77.17
2017-10-24T21:30:55.790Z,77.66
2017-10-24T21:35:57.704Z,76.99
2017-10-24T21:40:59.707Z,76.75
2017-10-24T21:46:01.641Z,76.29
2017-10-24T21:51:03.604Z,76.57
2017-10-24T21:56:05.706Z,76.26
2017-10-24T22:01:07.731Z,76.23
2017-10-24T22:06:09.677Z,76.20
2017-10-24T22:11:12.339Z,77.06
2017-10-24T22:16:14.277Z,77.19
2017-10-24T22:21:16.199Z,77.37
2017-10-24T22:26:18.149Z,77.74
2017-10-24T22:31:20.047Z,77.27
2017-10-24T22:36:21.973Z,77.32
2017-10-24T22:41:23.904Z,77.19
2017-10-24T22:46:25.867Z,77.30
2017-10-24T22:51:27.852Z,77.73
2017-10-24T22:56:29.792Z,78.38
2017-10-24T23:01:31.708Z,78.83
2017-10-24T23:06:33.650Z,79.20
2017-10-24T23:11:36.336Z,79.41
2017-10-24T23:16:38.277Z,79.54
2017-10-24T23:21:40.939Z,78.92
2017-10-24T23:26:42.883Z,78.94
2017-10-24T23:31:45.573Z,79.24
2017-10-24T23:36:47.503Z,79.54
2017-10-24T23:41:49.404Z,79.20
2017-10-24T23:46:51.349Z,79.12
2017-10-24T23:51:53.328Z,78.61
2017-10-24T23:56:55.983Z,78.26
